Time;durP1;ratioP1;P1;durP2;ratioP2;P2;SDS_P1;SDS_P2;PMS_P1;PMS_P2;Temp;Humidity;BMP_temperature;BMP_pressure;BME280_temperature;BME280_humidity;BME280_pressure;Samples;Min_cycle;Max_cycle;Signal;HPM_P1;HPM_P2
2022/06/12 00:00:59;;;;;;;15.00;5.68;;;;;;;15.92;84.50;96892.91;5038166;28;20205;-74
2022/06/12 00:03:28;;;;;;;8.48;4.88;;;;;;;16.21;83.48;96890.03;5037160;28;20705;-74
2022/06/12 00:05:58;;;;;;;7.65;4.40;;;;;;;15.93;83.22;96883.91;5037350;28;20213;-73
2022/06/12 00:08:25;;;;;;;5.90;3.72;;;;;;;15.94;82.75;96893.53;5038016;28;20225;-73
2022/06/12 00:10:55;;;;;;;6.97;3.65;;;;;;;15.79;84.38;96891.19;5037620;28;20205;-73
2022/06/12 00:13:26;;;;;;;8.82;3.63;;;;;;;15.58;85.14;96899.16;5036475;28;20194;-73
2022/06/12 00:15:53;;;;;;;5.90;3.63;;;;;;;15.69;85.03;96898.66;5037476;28;20224;-73
2022/06/12 00:18:20;;;;;;;7.10;3.33;;;;;;;15.59;84.80;96892.84;5038190;28;20365;-72
2022/06/12 00:20:47;;;;;;;6.47;3.00;;;;;;;15.61;84.81;96890.81;5037968;28;20207;-73
2022/06/12 00:23:16;;;;;;;4.78;2.50;;;;;;;15.68;85.11;96889.88;5036673;28;20221;-74
2022/06/12 00:25:43;;;;;;;3.90;2.50;;;;;;;15.36;85.88;96886.91;5038442;28;20227;-73
2022/06/12 00:28:10;;;;;;;4.00;2.70;;;;;;;15.28;86.19;96879.91;5037376;28;20221;-72
2022/06/12 00:30:38;;;;;;;4.68;2.80;;;;;;;15.58;87.13;96881.41;5037245;28;20197;-73
2022/06/12 00:33:05;;;;;;;5.68;2.75;;;;;;;15.47;86.86;96876.59;5036820;28;21199;-72
2022/06/12 00:35:34;;;;;;;5.43;3.15;;;;;;;15.77;85.69;96874.59;5036818;28;20209;-72
2022/06/12 00:38:02;;;;;;;5.88;2.47;;;;;;;15.58;84.54;96869.94;5036422;28;20228;-72
2022/06/12 00:40:29;;;;;;;6.22;3.35;;;;;;;15.60;83.18;96870.59;5036997;28;20320;-73
2022/06/12 00:42:58;;;;;;;4.90;2.95;;;;;;;15.68;83.90;96867.78;5036989;28;20225;-73
2022/06/12 00:45:36;;;;;;;5.25;2.70;;;;;;;15.69;84.44;96856.13;5037489;28;20205;-73
2022/06/12 00:48:08;;;;;;;3.88;2.33;;;;;;;15.39;85.41;96860.00;5033471;28;20216;-73
2022/06/12 00:50:36;;;;;;;5.45;2.60;;;;;;;15.41;84.93;96871.22;5037536;28;20212;-72
2022/06/12 00:53:06;;;;;;;7.35;3.00;;;;;;;15.34;84.73;96862.41;5036497;28;20207;-73
2022/06/12 00:55:42;;;;;;;3.95;2.60;;;;;;;15.28;85.33;96871.13;5037235;28;20670;-76
2022/06/12 00:58:12;;;;;;;7.45;2.70;;;;;;;15.20;85.42;96860.59;5035357;28;20229;-76
2022/06/12 01:00:39;;;;;;;5.95;2.67;;;;;;;15.28;86.15;96869.28;5036505;28;20213;-73
2022/06/12 01:03:08;;;;;;;3.65;2.38;;;;;;;15.47;85.32;96865.16;5036173;28;20221;-73
2022/06/12 01:08:20;;;;;;;4.43;2.65;;;;;;;15.55;86.18;96862.38;5036358;28;20232;-74
2022/06/12 01:10:50;;;;;;;5.97;2.75;;;;;;;15.40;84.91;96865.09;5036785;28;20208;-74
2022/06/12 01:13:19;;;;;;;3.65;2.50;;;;;;;15.23;85.21;96865.56;5035340;28;21255;-74
2022/06/12 01:15:48;;;;;;;3.30;2.13;;;;;;;15.30;84.99;96856.63;5036840;28;20201;-74
2022/06/12 01:18:21;;;;;;;3.80;2.55;;;;;;;15.30;85.14;96851.34;5036812;28;20557;-74
2022/06/12 01:20:53;;;;;;;7.00;2.67;;;;;;;15.32;85.00;96848.47;5036241;28;20346;-74
2022/06/12 01:23:42;;;;;;;4.82;2.65;;;;;;;15.11;85.38;96860.91;5034918;28;20232;-74
2022/06/12 01:26:37;;;;;;;4.35;2.60;;;;;;;15.07;83.40;96855.16;5036983;28;20224;-74
2022/06/12 01:29:09;;;;;;;6.45;2.50;;;;;;;14.77;86.31;96856.28;5037095;28;20609;-74
2022/06/12 01:31:49;;;;;;;5.07;2.55;;;;;;;14.94;87.15;96856.84;5036386;28;21186;-79
2022/06/12 01:34:29;;;;;;;4.25;2.53;;;;;;;14.89;86.29;96857.44;5035207;28;20280;-75
2022/06/12 01:37:01;;;;;;;4.30;2.67;;;;;;;14.37;87.89;96855.16;5036641;28;20295;-75
2022/06/12 01:39:37;;;;;;;5.35;2.85;;;;;;;14.45;88.08;96852.44;5035817;28;20205;-75
2022/06/12 01:42:12;;;;;;;3.95;2.65;;;;;;;14.26;89.66;96848.50;5035435;28;20319;-74
2022/06/12 01:44:48;;;;;;;4.10;2.90;;;;;;;14.75;87.31;96850.34;5035783;28;20320;-74
2022/06/12 01:47:25;;;;;;;6.97;2.50;;;;;;;14.69;86.39;96850.28;5035265;28;20228;-74
2022/06/12 01:49:59;;;;;;;3.83;2.60;;;;;;;14.80;86.55;96858.56;5035960;28;20256;-74
2022/06/12 01:52:30;;;;;;;5.30;2.75;;;;;;;14.51;87.59;96852.50;5034642;28;20201;-74
2022/06/12 01:55:06;;;;;;;4.80;2.55;;;;;;;14.40;86.31;96844.22;5035870;28;21000;-74
2022/06/12 01:57:35;;;;;;;6.97;2.90;;;;;;;14.54;86.33;96843.38;5036571;28;20224;-73
2022/06/12 02:00:08;;;;;;;4.13;2.65;;;;;;;14.63;86.97;96841.22;5035489;28;21017;-73
2022/06/12 02:02:39;;;;;;;7.47;2.63;;;;;;;14.74;86.87;96834.63;5034210;28;20216;-74
2022/06/12 02:05:14;;;;;;;6.68;2.90;;;;;;;14.48;86.35;96841.44;5035812;28;20254;-74
2022/06/12 02:07:46;;;;;;;4.45;2.70;;;;;;;14.47;85.95;96837.16;5035014;28;20228;-74
2022/06/12 02:10:19;;;;;;;4.18;2.58;;;;;;;14.29;86.71;96845.47;5035587;28;20666;-74
2022/06/12 02:13:11;;;;;;;4.90;2.65;;;;;;;14.32;86.23;96845.13;5034823;28;20208;-74
2022/06/12 02:15:45;;;;;;;7.47;2.58;;;;;;;14.50;86.58;96845.56;5035099;28;20198;-74
2022/06/12 02:18:21;;;;;;;6.13;2.70;;;;;;;14.54;86.63;96838.88;5035407;28;20241;-73
2022/06/12 02:20:59;;;;;;;5.63;2.28;;;;;;;14.42;85.05;96844.84;5035449;28;20877;-74
2022/06/12 02:23:31;;;;;;;6.35;2.70;;;;;;;14.58;87.07;96841.97;5035323;28;20221;-74
2022/06/12 02:26:00;;;;;;;4.85;2.47;;;;;;;14.58;87.29;96844.63;5035602;28;20201;-73
2022/06/12 02:28:33;;;;;;;9.32;2.75;;;;;;;14.29;88.62;96847.31;5035107;28;20225;-74
2022/06/12 02:31:07;;;;;;;6.43;2.75;;;;;;;14.67;87.20;96846.97;5035064;28;20205;-74
2022/06/12 02:33:39;;;;;;;8.88;3.42;;;;;;;14.68;87.48;96844.13;5035039;28;20219;-74
2022/06/12 02:36:10;;;;;;;5.15;3.10;;;;;;;14.70;86.04;96844.78;5035429;28;20197;-74
2022/06/12 02:38:39;;;;;;;3.22;2.40;;;;;;;14.29;86.97;96848.13;5034540;28;20623;-74
2022/06/12 02:41:12;;;;;;;5.65;2.95;;;;;;;14.09;88.13;96848.88;5034892;28;20266;-74
2022/06/12 02:43:42;;;;;;;3.72;3.00;;;;;;;14.11;88.34;96846.88;5033812;28;20221;-74
2022/06/12 02:46:15;;;;;;;4.68;2.92;;;;;;;14.06;88.89;96841.28;5034983;28;20201;-73
2022/06/12 02:48:42;;;;;;;6.93;3.10;;;;;;;14.16;88.17;96844.50;5034658;28;20717;-73
2022/06/12 02:51:15;;;;;;;5.28;3.10;;;;;;;14.04;87.76;96845.97;5034011;28;20209;-73
2022/06/12 02:53:58;;;;;;;6.47;2.77;;;;;;;14.12;87.91;96843.25;5034732;28;20601;-74
2022/06/12 02:56:33;;;;;;;4.57;2.70;;;;;;;13.86;89.59;96850.81;5034880;28;20197;-73
2022/06/12 02:59:08;;;;;;;5.60;3.10;;;;;;;13.73;90.57;96853.22;5035089;28;20270;-74
2022/06/12 03:01:42;;;;;;;4.65;3.10;;;;;;;13.50;90.04;96855.16;5034641;28;21022;-74
2022/06/12 03:04:16;;;;;;;6.38;2.67;;;;;;;13.77;88.85;96854.53;5034484;28;20220;-73
2022/06/12 03:06:43;;;;;;;6.32;2.97;;;;;;;13.97;89.24;96863.56;5033969;28;20634;-74
2022/06/12 03:09:09;;;;;;;5.38;2.92;;;;;;;13.84;88.39;96862.59;5035213;28;20243;-74
2022/06/12 03:11:39;;;;;;;5.28;2.70;;;;;;;14.09;87.43;96859.50;5034759;28;20206;-74
2022/06/12 03:14:08;;;;;;;6.90;2.83;;;;;;;13.73;89.35;96866.47;5033310;28;20339;-73
2022/06/12 03:16:40;;;;;;;8.07;2.95;;;;;;;13.81;88.72;96866.41;5034070;28;20240;-73
2022/06/12 03:19:09;;;;;;;4.95;2.53;;;;;;;14.02;87.37;96853.25;5035148;28;20290;-73
2022/06/12 03:21:42;;;;;;;5.57;3.00;;;;;;;14.03;89.39;96860.22;5033901;28;21250;-72
2022/06/12 03:24:28;;;;;;;4.55;2.88;;;;;;;14.12;86.75;96857.31;5033893;28;20728;-73
2022/06/12 03:27:08;;;;;;;4.73;2.80;;;;;;;14.08;85.84;96855.22;5033830;28;20208;-72
2022/06/12 03:29:43;;;;;;;5.43;2.60;;;;;;;13.86;86.55;96861.41;5033606;28;20196;-73
2022/06/12 03:32:22;;;;;;;7.53;3.20;;;;;;;13.97;85.82;96855.63;5034132;28;20216;-73
2022/06/12 03:34:58;;;;;;;6.53;3.00;;;;;;;13.88;87.43;96859.38;5034637;28;20216;-73
2022/06/12 03:37:34;;;;;;;5.70;3.10;;;;;;;13.87;88.78;96860.38;5033806;28;20224;-72
2022/06/12 03:40:07;;;;;;;3.78;2.60;;;;;;;13.96;88.30;96872.53;5034061;28;20358;-71
2022/06/12 03:42:42;;;;;;;6.90;3.20;;;;;;;14.02;88.51;96863.84;5033739;28;20237;-74
2022/06/12 03:45:14;;;;;;;3.38;2.45;;;;;;;13.96;88.16;96869.06;5033857;28;20712;-74
2022/06/12 03:47:51;;;;;;;5.05;2.90;;;;;;;13.96;88.15;96869.06;5033025;28;20727;-74
2022/06/12 03:50:22;;;;;;;7.20;3.65;;;;;;;14.08;89.39;96871.94;5034001;28;20201;-74
2022/06/12 03:52:56;;;;;;;5.00;3.25;;;;;;;14.35;89.23;96863.31;5032989;28;20230;-74
2022/06/12 03:58:15;;;;;;;4.68;2.92;;;;;;;13.74;89.66;96868.13;5033923;28;20221;-74
2022/06/12 04:00:44;;;;;;;6.50;2.92;;;;;;;14.04;88.35;96864.50;5033975;28;20208;-73
2022/06/12 04:03:17;;;;;;;8.90;3.15;;;;;;;14.35;88.52;96857.19;5033537;28;20205;-72
2022/06/12 04:05:47;;;;;;;5.57;3.40;;;;;;;14.43;88.80;96859.75;5033778;28;20240;-72
2022/06/12 04:08:18;;;;;;;17.70;3.05;;;;;;;14.14;89.31;96854.47;5033869;28;20221;-71
2022/06/12 04:10:45;;;;;;;10.52;3.42;;;;;;;14.13;89.07;96855.50;5033585;28;20212;-72
2022/06/12 04:13:13;;;;;;;6.05;3.33;;;;;;;14.11;90.63;96862.78;5033007;28;20209;-76
2022/06/12 04:15:44;;;;;;;7.53;3.10;;;;;;;14.16;91.85;96857.75;5034426;28;20208;-75
2022/06/12 04:18:13;;;;;;;5.82;2.88;;;;;;;14.18;92.23;96861.06;5033687;28;20857;-78
2022/06/12 04:20:54;;;;;;;8.05;3.33;;;;;;;14.34;92.65;96863.50;5033559;28;20216;-76
2022/06/12 04:23:33;;;;;;;5.00;3.08;;;;;;;14.44;92.98;96859.56;5032943;28;20237;-78
2022/06/12 04:26:05;;;;;;;6.32;3.75;;;;;;;14.66;93.30;96859.44;5034623;28;20354;-76
2022/06/12 04:28:35;;;;;;;5.68;3.38;;;;;;;14.69;93.37;96856.38;5032941;28;20275;-78
2022/06/12 04:31:04;;;;;;;5.68;3.33;;;;;;;14.85;93.28;96866.75;5033190;28;20438;-77
2022/06/12 04:33:40;;;;;;;7.50;3.63;;;;;;;15.13;92.41;96859.69;5035637;28;20286;-77
2022/06/12 04:36:10;;;;;;;5.50;3.83;;;;;;;15.23;92.16;96854.13;5036909;28;20207;-78
2022/06/12 04:38:37;;;;;;;6.18;3.65;;;;;;;15.22;93.58;96853.28;5036599;28;20241;-76
2022/06/12 04:41:04;;;;;;;4.97;3.25;;;;;;;15.30;93.63;96853.19;5037015;28;21200;-75
2022/06/12 04:43:31;;;;;;;7.63;4.45;;;;;;;15.46;93.35;96860.84;5035690;28;20217;-75
2022/06/12 04:45:58;;;;;;;5.97;3.65;;;;;;;15.51;93.88;96856.59;5037070;28;20229;-75
2022/06/12 04:48:28;;;;;;;6.90;3.97;;;;;;;15.74;94.29;96854.53;5036611;28;20221;-75
2022/06/12 04:50:56;;;;;;;8.57;4.47;;;;;;;15.98;93.74;96856.75;5036914;28;20205;-78
2022/06/12 04:53:23;;;;;;;7.80;4.20;;;;;;;15.87;94.03;96855.47;5036524;28;20201;-78
2022/06/12 04:55:49;;;;;;;10.40;5.15;;;;;;;16.09;93.51;96858.88;5036843;28;20202;-76
2022/06/12 04:58:16;;;;;;;7.00;4.28;;;;;;;16.20;92.90;96861.78;5035943;28;20217;-77
2022/06/12 05:00:42;;;;;;;7.28;4.32;;;;;;;16.36;92.36;96864.16;5037179;28;20212;-77
2022/06/12 05:03:09;;;;;;;6.55;4.40;;;;;;;16.51;91.85;96859.53;5035941;28;20201;-76
2022/06/12 05:05:35;;;;;;;9.70;4.63;;;;;;;16.70;89.54;96858.75;5037301;28;20239;-77
2022/06/12 05:08:03;;;;;;;7.47;4.20;;;;;;;16.89;89.02;96858.00;5038347;28;20255;-75
2022/06/12 05:10:30;;;;;;;8.25;4.10;;;;;;;16.97;88.30;96871.13;5039715;28;20209;-75
2022/06/12 05:12:57;;;;;;;6.68;4.07;;;;;;;17.05;87.67;96862.97;5037549;28;20612;-75
2022/06/12 05:15:24;;;;;;;6.68;4.07;;;;;;;17.21;86.78;96864.25;5038466;28;20201;-76
2022/06/12 05:17:50;;;;;;;6.65;4.22;;;;;;;17.30;85.83;96868.38;5039765;28;20233;-76
2022/06/12 05:20:20;;;;;;;6.55;4.13;;;;;;;17.28;84.63;96859.75;5038213;28;20693;-75
2022/06/12 05:22:47;;;;;;;6.05;4.00;;;;;;;17.48;84.21;96857.13;5037601;28;20208;-76
2022/06/12 05:25:15;;;;;;;6.50;3.70;;;;;;;17.73;83.90;96856.28;5038771;28;20229;-74
2022/06/12 05:27:44;;;;;;;10.30;4.75;;;;;;;17.69;83.23;96847.06;5037037;28;20240;-77
2022/06/12 05:30:12;;;;;;;6.35;4.10;;;;;;;17.75;82.78;96846.25;5036676;28;20201;-76
2022/06/12 05:32:39;;;;;;;9.35;4.15;;;;;;;17.57;82.33;96848.72;5036188;28;20208;-74
2022/06/12 05:35:07;;;;;;;10.40;4.78;;;;;;;17.57;82.46;96842.59;5034986;28;20193;-76
2022/06/12 05:37:35;;;;;;;7.15;4.03;;;;;;;17.46;81.76;96846.66;5035778;28;20728;-74
2022/06/12 05:40:02;;;;;;;6.70;3.80;;;;;;;17.62;82.17;96850.78;5036371;28;20209;-74
2022/06/12 05:42:30;;;;;;;9.20;3.88;;;;;;;17.64;82.22;96851.38;5035908;28;20221;-75
2022/06/12 05:44:57;;;;;;;8.55;4.32;;;;;;;17.76;82.04;96851.38;5035941;28;20228;-74
2022/06/12 05:47:23;;;;;;;8.20;4.18;;;;;;;17.98;81.94;96855.44;5036613;28;20236;-74
2022/06/12 05:49:50;;;;;;;7.28;3.92;;;;;;;18.17;82.24;96849.28;5036540;28;20208;-75
2022/06/12 05:52:17;;;;;;;7.07;4.18;;;;;;;18.03;82.25;96849.50;5035980;28;20216;-75
2022/06/12 05:54:43;;;;;;;6.10;4.03;;;;;;;18.05;82.57;96850.09;5036162;28;20197;-75
2022/06/12 05:57:10;;;;;;;8.27;4.65;;;;;;;18.17;82.11;96848.44;5036594;28;20217;-76
2022/06/12 05:59:38;;;;;;;7.70;4.55;;;;;;;18.20;83.12;96850.72;5032954;28;20205;-76
2022/06/12 06:02:06;;;;;;;8.52;3.83;;;;;;;18.44;81.76;96848.19;5036640;28;20201;-75
2022/06/12 06:04:33;;;;;;;6.25;4.32;;;;;;;18.66;81.60;96858.38;5035843;28;20241;-76
2022/06/12 06:07:00;;;;;;;8.43;4.20;;;;;;;18.76;81.36;96856.09;5035336;28;20197;-76
2022/06/12 06:09:27;;;;;;;7.88;4.60;;;;;;;19.11;79.55;96857.38;5032498;28;20213;-77
2022/06/12 06:11:54;;;;;;;8.85;4.85;;;;;;;18.99;79.71;96864.38;5035901;28;20213;-76
2022/06/12 06:14:21;;;;;;;6.43;4.43;;;;;;;19.05;80.26;96847.50;5035062;28;20204;-74
2022/06/12 06:16:49;;;;;;;8.30;4.90;;;;;;;19.17;80.54;96851.13;5034770;28;20237;-74
2022/06/12 06:19:16;;;;;;;7.82;4.55;;;;;;;19.16;79.50;96852.19;5036119;28;20201;-75
2022/06/12 06:21:42;;;;;;;6.15;4.00;;;;;;;19.37;79.36;96860.66;5036068;28;20216;-74
2022/06/12 06:24:09;;;;;;;7.30;4.82;;;;;;;19.16;79.82;96858.34;5033959;28;20201;-74
2022/06/12 06:26:36;;;;;;;8.27;4.47;;;;;;;19.50;78.37;96857.09;5035778;28;20312;-77
2022/06/12 06:29:04;;;;;;;6.85;4.75;;;;;;;19.86;78.49;96856.16;5036526;28;20595;-73
2022/06/12 06:31:31;;;;;;;6.85;4.75;;;;;;;19.77;77.69;96854.81;5035226;28;20208;-73
2022/06/12 06:33:59;;;;;;;8.00;4.30;;;;;;;20.23;75.89;96855.25;5033265;28;21124;-74
2022/06/12 06:36:26;;;;;;;6.85;3.90;;;;;;;20.38;75.70;96861.06;5035519;28;20197;-75
2022/06/12 06:38:54;;;;;;;6.88;4.65;;;;;;;20.23;76.31;96861.41;5035660;28;20235;-74
2022/06/12 06:41:21;;;;;;;7.22;4.57;;;;;;;20.36;77.58;96865.81;5034767;28;20225;-74
2022/06/12 06:46:31;;;;;;;8.40;4.60;;;;;;;20.31;75.36;96868.31;5034225;28;20239;-73
2022/06/12 06:49:00;;;;;;;8.30;5.00;;;;;;;20.43;76.19;96864.69;5034940;28;20237;-73
2022/06/12 06:51:27;;;;;;;11.05;5.00;;;;;;;20.51;75.84;96863.59;5034725;28;20205;-74
2022/06/12 06:53:53;;;;;;;6.97;4.60;;;;;;;20.47;74.24;96862.41;5033841;28;20209;-73
2022/06/12 06:56:20;;;;;;;6.25;4.43;;;;;;;20.64;74.39;96863.44;5033721;28;20198;-73
2022/06/12 06:58:47;;;;;;;10.77;4.90;;;;;;;20.67;73.91;96862.97;5033616;28;20228;-74
2022/06/12 07:01:14;;;;;;;8.73;4.82;;;;;;;20.96;73.85;96855.84;5034382;28;20303;-74
2022/06/12 07:03:40;;;;;;;8.18;4.78;;;;;;;20.97;72.46;96852.09;5033482;28;20858;-74
2022/06/12 07:06:11;;;;;;;7.95;4.57;;;;;;;21.13;72.77;96848.81;5033758;28;20225;-74
2022/06/12 07:08:37;;;;;;;9.82;5.07;;;;;;;21.18;71.16;96850.78;5035075;28;20279;-73
2022/06/12 07:11:04;;;;;;;6.90;4.35;;;;;;;21.49;69.33;96848.69;5035086;28;20206;-74
2022/06/12 07:13:31;;;;;;;8.05;4.30;;;;;;;21.54;70.08;96846.97;5032794;28;20216;-74
2022/06/12 07:15:57;;;;;;;9.07;4.35;;;;;;;21.51;69.68;96854.66;5035332;28;20205;-74
2022/06/12 07:18:24;;;;;;;9.00;4.18;;;;;;;21.68;68.85;96844.91;5034586;28;20264;-74
2022/06/12 07:20:54;;;;;;;6.28;3.90;;;;;;;21.95;66.89;96854.97;5034432;28;20580;-73
2022/06/12 07:23:24;;;;;;;5.80;3.72;;;;;;;22.07;65.68;96851.25;5033853;28;20201;-74
2022/06/12 07:25:54;;;;;;;6.10;3.92;;;;;;;21.95;66.46;96848.78;5033493;28;20224;-73
2022/06/12 07:28:22;;;;;;;5.45;3.03;;;;;;;21.86;66.46;96853.66;5033925;28;20350;-73
2022/06/12 07:30:50;;;;;;;6.25;3.92;;;;;;;22.36;66.69;96847.63;5034685;28;21162;-73
2022/06/12 07:33:17;;;;;;;6.45;3.78;;;;;;;22.47;65.15;96854.06;5033752;28;20319;-73
2022/06/12 07:35:45;;;;;;;5.13;3.50;;;;;;;22.57;64.30;96849.72;5034996;28;20205;-73
2022/06/12 07:38:13;;;;;;;4.78;3.40;;;;;;;22.79;65.00;96850.72;5033930;28;20213;-74
2022/06/12 07:40:46;;;;;;;8.15;3.28;;;;;;;23.02;63.78;96850.69;5033811;28;20201;-74
2022/06/12 07:43:12;;;;;;;5.78;3.50;;;;;;;;;;5033086;28;20197;-73
2022/06/12 07:45:41;;;;;;;3.88;3.03;;;;;;;23.36;63.68;96843.28;5034293;28;20228;-74
2022/06/12 07:48:08;;;;;;;6.65;3.40;;;;;;;23.26;61.97;96839.59;5034721;28;20221;-73
2022/06/12 07:50:37;;;;;;;6.00;3.08;;;;;;;23.21;60.98;96844.06;5034445;28;20574;-74
2022/06/12 07:53:03;;;;;;;3.80;2.65;;;;;;;23.30;59.84;96841.53;5033754;28;20216;-73
2022/06/12 07:55:30;;;;;;;4.70;2.40;;;;;;;23.49;59.95;96842.97;5033745;28;20202;-73
2022/06/12 07:57:58;;;;;;;3.83;2.70;;;;;;;23.67;60.52;96834.66;5033800;28;21149;-74
2022/06/12 08:00:25;;;;;;;4.68;2.63;;;;;;;23.77;60.96;96832.19;5034521;28;20665;-74
2022/06/12 08:02:52;;;;;;;4.13;2.80;;;;;;;23.63;58.63;96838.91;5033641;28;20197;-73
2022/06/12 08:05:20;;;;;;;4.30;2.50;;;;;;;23.97;61.39;96838.69;5033863;28;20222;-74
2022/06/12 08:07:46;;;;;;;3.22;2.15;;;;;;;24.23;58.26;96842.59;5035612;28;20510;-74
2022/06/12 08:10:13;;;;;;;4.57;2.40;;;;;;;24.03;55.25;96836.91;5036256;28;20205;-74
2022/06/12 08:12:42;;;;;;;5.72;2.25;;;;;;;24.31;56.36;96836.78;5035361;28;20197;-74
2022/06/12 08:15:15;;;;;;;3.05;2.20;;;;;;;24.17;55.12;96841.72;5036482;28;21052;-74
2022/06/12 08:17:41;;;;;;;3.45;2.40;;;;;;;24.18;56.57;96832.56;5036157;28;20235;-74
2022/06/12 08:20:28;;;;;;;2.80;2.15;;;;;;;24.27;54.05;96822.19;5036264;28;20863;-74
2022/06/12 08:23:00;;;;;;;2.13;1.90;;;;;;;24.56;51.38;96830.72;5035166;28;20247;-74
2022/06/12 08:25:28;;;;;;;5.90;2.67;;;;;;;24.67;53.88;96834.38;5036655;28;20225;-74
2022/06/12 08:27:55;;;;;;;10.77;2.10;;;;;;;24.94;52.33;96836.06;5036927;28;20511;-74
2022/06/12 08:30:23;;;;;;;2.88;1.90;;;;;;;25.02;53.61;96832.09;5036881;28;20201;-74
2022/06/12 08:32:52;;;;;;;2.40;1.90;;;;;;;24.94;54.12;96822.56;5036274;28;20201;-74
2022/06/12 08:35:22;;;;;;;3.97;2.25;;;;;;;25.09;53.16;96817.41;5037412;28;20205;-74
2022/06/12 08:37:49;;;;;;;4.30;2.10;;;;;;;25.06;54.42;96812.47;5036440;28;20367;-74
2022/06/12 08:40:22;;;;;;;2.75;2.15;;;;;;;25.32;54.81;96822.50;5037017;28;20571;-74
2022/06/12 08:42:59;;;;;;;3.92;2.13;;;;;;;25.29;52.70;96818.44;5036356;28;20208;-74
2022/06/12 08:45:34;;;;;;;3.22;2.15;;;;;;;25.54;50.89;96807.06;5035260;28;20221;-74
2022/06/12 08:48:06;;;;;;;3.35;1.92;;;;;;;25.87;51.46;96800.34;5037455;28;20225;-73
2022/06/12 08:50:37;;;;;;;2.17;1.85;;;;;;;26.17;52.08;96805.16;5037012;28;20586;-71
2022/06/12 08:53:09;;;;;;;2.60;2.03;;;;;;;26.02;50.61;96810.47;5036552;28;21096;-75
2022/06/12 08:55:42;;;;;;;3.30;2.00;;;;;;;25.92;49.80;96808.47;5037640;28;21021;-74
2022/06/12 08:58:16;;;;;;;3.10;2.00;;;;;;;26.09;50.64;96808.34;5036985;28;20267;-73
2022/06/12 09:00:45;;;;;;;2.80;1.90;;;;;;;26.30;50.85;96797.41;5037838;28;20209;-75
2022/06/12 09:03:15;;;;;;;2.55;2.00;;;;;;;26.48;51.83;96799.72;5037201;28;20205;-74
2022/06/12 09:05:50;;;;;;;5.78;2.10;;;;;;;26.59;49.34;96793.25;5037413;28;20221;-73
2022/06/12 09:08:27;;;;;;;3.95;1.70;;;;;;;26.64;46.60;96790.56;5036454;28;20228;-74
2022/06/12 09:11:02;;;;;;;3.47;1.90;;;;;;;26.90;46.52;96797.75;5036395;28;20231;-74
2022/06/12 09:13:39;;;;;;;4.10;2.47;;;;;;;26.72;48.31;96796.31;5036998;28;20205;-73
2022/06/12 09:16:18;;;;;;;6.35;1.88;;;;;;;26.78;44.74;96791.72;5036163;28;20212;-73
2022/06/12 09:18:51;;;;;;;2.25;1.85;;;;;;;26.76;47.47;96794.69;5034284;28;20240;-75
2022/06/12 09:21:23;;;;;;;3.03;1.83;;;;;;;26.89;47.85;96788.78;5037375;28;20201;-74
2022/06/12 09:24:01;;;;;;;4.50;1.83;;;;;;;27.30;48.77;96785.97;5035462;28;20197;-73
2022/06/12 09:26:38;;;;;;;3.70;1.90;;;;;;;26.79;46.07;96783.34;5036016;28;20381;-74
2022/06/12 09:29:21;;;;;;;2.20;1.85;;;;;;;27.33;49.46;96785.44;5036346;28;20221;-73
2022/06/12 09:31:55;;;;;;;3.60;2.05;;;;;;;27.45;46.59;96775.16;5035773;28;20251;-74
2022/06/12 09:34:32;;;;;;;4.07;1.65;;;;;;;27.46;45.15;96774.09;5036536;28;20212;-73
2022/06/12 09:40:02;;;;;;;2.40;1.92;;;;;;;27.92;46.44;96778.47;5037541;28;20205;-73
2022/06/12 09:42:42;;;;;;;3.65;2.03;;;;;;;28.27;45.94;96770.31;5037810;28;20270;-73
2022/06/12 09:45:15;;;;;;;5.35;2.97;;;;;;;28.31;43.05;96776.78;5038570;28;20267;-75
2022/06/12 09:47:46;;;;;;;3.92;2.15;;;;;;;28.59;45.39;96771.56;5037822;28;21209;-74
2022/06/12 09:50:26;;;;;;;4.35;1.98;;;;;;;28.59;44.42;96775.09;5038052;28;20201;-75
2022/06/12 09:53:04;;;;;;;3.95;2.05;;;;;;;28.22;40.58;96781.16;5037692;28;20219;-74
2022/06/12 09:55:37;;;;;;;2.47;1.83;;;;;;;27.77;43.01;96778.47;5038221;28;20220;-77
2022/06/12 09:58:11;;;;;;;2.83;1.55;;;;;;;27.82;41.11;96767.63;5037717;28;20221;-75
2022/06/12 10:00:44;;;;;;;2.65;1.58;;;;;;;27.91;44.45;96758.66;5037664;28;20208;-75
2022/06/12 10:03:19;;;;;;;2.90;2.00;;;;;;;28.00;42.75;96758.94;5036874;28;20996;-77
2022/06/12 10:05:49;;;;;;;3.83;1.92;;;;;;;27.97;42.37;96752.16;5036951;28;20220;-74
2022/06/12 10:08:21;;;;;;;1.67;1.40;;;;;;;27.79;41.59;96754.63;5037177;28;20251;-75
2022/06/12 10:10:54;;;;;;;4.25;1.77;;;;;;;27.92;41.58;96744.03;5034274;28;20208;-76
2022/06/12 10:13:25;;;;;;;3.53;1.80;;;;;;;28.13;42.78;96739.41;5037046;28;20910;-76
2022/06/12 10:15:55;;;;;;;6.78;1.80;;;;;;;28.43;41.17;96742.88;5037504;28;20212;-75
2022/06/12 10:18:27;;;;;;;4.07;1.75;;;;;;;28.19;41.86;96735.63;5037607;28;20229;-74
2022/06/12 10:20:58;;;;;;;3.35;1.88;;;;;;;28.18;43.64;96742.94;5037645;28;20213;-74
2022/06/12 10:23:25;;;;;;;2.45;1.90;;;;;;;28.51;42.33;96735.00;5036469;28;20212;-74
2022/06/12 10:25:55;;;;;;;4.80;1.75;;;;;;;29.00;41.50;96725.03;5037664;28;20266;-74
2022/06/12 10:28:26;;;;;;;2.15;1.90;;;;;;;28.57;42.28;96724.94;5038040;28;21050;-73
2022/06/12 10:31:05;;;;;;;2.47;1.70;;;;;;;28.96;40.49;96730.19;5037083;28;20198;-74
2022/06/12 10:33:46;;;;;;;3.47;1.63;;;;;;;28.50;39.31;96727.94;5035770;28;21163;-73
2022/06/12 10:36:20;;;;;;;2.80;1.80;;;;;;;28.29;38.86;96731.00;5037387;28;20201;-74
2022/06/12 10:38:47;;;;;;;2.35;1.90;;;;;;;28.18;39.10;96732.09;5037437;28;20279;-73
2022/06/12 10:41:24;;;;;;;2.53;1.60;;;;;;;28.41;38.92;96726.06;5036747;28;20205;-73
2022/06/12 10:43:53;;;;;;;2.95;1.60;;;;;;;28.32;39.85;96726.91;5036423;28;20209;-73
2022/06/12 10:46:23;;;;;;;1.60;1.50;;;;;;;28.17;40.84;96722.34;5036740;28;20235;-73
2022/06/12 10:49:01;;;;;;;2.83;1.70;;;;;;;28.52;38.78;96714.91;5037369;28;20225;-72
2022/06/12 10:51:36;;;;;;;2.80;1.77;;;;;;;28.59;39.75;96710.00;5036465;28;20731;-73
2022/06/12 10:54:12;;;;;;;6.15;1.80;;;;;;;28.70;39.48;96714.28;5032992;28;20270;-73
2022/06/12 10:56:46;;;;;;;2.03;1.75;;;;;;;29.04;37.58;96710.59;5037389;28;20201;-73
2022/06/12 10:59:30;;;;;;;3.80;1.40;;;;;;;29.19;37.07;96699.66;5036776;28;20229;-73
2022/06/12 11:02:18;;;;;;;3.10;1.90;;;;;;;29.32;39.49;96701.75;5036520;28;20209;-73
2022/06/12 11:04:59;;;;;;;2.20;1.80;;;;;;;29.43;38.31;96699.75;5036592;28;20212;-72
2022/06/12 11:07:29;;;;;;;3.03;1.70;;;;;;;29.20;38.67;96692.28;5036818;28;20240;-73
2022/06/12 11:10:12;;;;;;;3.30;1.70;;;;;;;29.47;37.44;96685.34;5036763;28;20220;-73
2022/06/12 11:12:52;;;;;;;1.83;1.50;;;;;;;30.13;37.84;96684.47;5035340;28;20215;-73
2022/06/12 11:15:32;;;;;;;2.45;1.40;;;;;;;30.27;35.17;96682.69;5032352;28;20966;-73
2022/06/12 11:18:14;;;;;;;3.33;1.60;;;;;;;29.40;36.36;96676.69;5033946;28;20232;-73
2022/06/12 11:20:51;;;;;;;3.92;1.40;;;;;;;30.11;38.84;96669.53;5034438;28;20201;-73
2022/06/12 11:23:34;;;;;;;2.85;1.48;;;;;;;30.32;36.02;96671.72;5033311;28;20854;-73
2022/06/12 11:26:14;;;;;;;1.35;1.23;;;;;;;30.07;35.34;96676.66;5033384;28;20201;-72
2022/06/12 11:28:53;;;;;;;2.10;1.30;;;;;;;29.80;32.75;96669.00;5033724;28;20746;-72
2022/06/12 11:31:36;;;;;;;2.33;1.40;;;;;;;30.41;34.28;96676.28;5033846;28;20204;-72
2022/06/12 11:34:16;;;;;;;4.28;1.80;;;;;;;30.23;36.48;96670.72;5033629;28;20581;-73
2022/06/12 11:36:54;;;;;;;2.25;1.60;;;;;;;30.31;36.07;96664.69;5035789;28;20201;-73
2022/06/12 11:39:30;;;;;;;2.55;1.50;;;;;;;30.47;36.34;96666.13;5036042;28;20343;-72
2022/06/12 11:42:26;;;;;;;4.28;1.52;;;;;;;30.58;33.93;96659.47;5034638;28;20208;-72
2022/06/12 11:45:06;;;;;;;1.83;1.60;;;;;;;30.62;35.74;96655.06;5035576;28;20591;-72
2022/06/12 11:47:45;;;;;;;3.60;1.65;;;;;;;30.25;35.15;96654.94;5035610;28;20231;-72
2022/06/12 11:50:23;;;;;;;3.25;1.60;;;;;;;30.95;35.38;96663.84;5035537;28;20201;-72
2022/06/12 11:53:01;;;;;;;1.80;1.50;;;;;;;30.94;34.22;96658.69;5034972;28;20205;-72
2022/06/12 11:55:34;;;;;;;2.45;1.40;;;;;;;31.00;34.36;96644.72;5035684;28;20205;-72
2022/06/12 11:58:24;;;;;;;3.72;1.67;;;;;;;31.24;34.52;96647.38;5035373;28;20225;-73
2022/06/12 12:00:58;;;;;;;1.77;1.23;;;;;;;30.87;33.99;96642.72;5036157;28;20201;-72
2022/06/12 12:04:01;;;;;;;3.13;1.48;;;;;;;31.30;32.65;96640.72;5034525;28;20216;-72
2022/06/12 12:06:50;;;;;;;1.67;1.40;;;;;;;31.37;34.90;96643.88;5035279;28;20278;-73